Volk, WI

9:43 PM CDT on April 29, 2017 (GMT -0500)
Volk

Weather History for KVOK - September, 2014

Change the Weather History Date:

Thursday, September 18, 2014

  Actual Average Record
Temperature  
Mean Temperature 51 °F -  
Max Temperature 63 °F 67 °F 84 °F (2000)
Min Temperature 40 °F 49 °F 28 °F (2012)
Degree Days  
Heating Degree Days 14    
Growing Degree Days 1 (Base 50)    
Moisture  
Dew Point 47 °F    
Average Humidity 98    
Maximum Humidity 100    
Minimum Humidity 77    
Precipitation  
Precipitation 0.00 in - - ()
Sea Level Pressure  
Sea Level Pressure 30.11 in    
Wind  
Wind Speed 3 mph (ESE)    
Max Wind Speed 12 mph    
Max Gust Speed -    
Visibility 5 miles    
Events Fog    
Averages and records for this station are not official NWS values.
T = Trace of Precipitation, MM = Missing Value Source: NWS Daily Summary

Daily Weather History Graph

Daily Weather History Graph

Search for Another Location

Airport or City:

Trip Planner

Search our weather history database for the weather conditions in past years. The results will help you decide how hot, cold, wet, or windy it might be!

Date:

Astronomy

Sep. 18, 2014 Rise Set
Actual Time 6:43 AM CDT 7:05 PM CDT
Civil Twilight 6:14 AM CDT 7:34 PM CDT
Nautical Twilight 5:40 AM CDT 8:08 PM CDT
Astronomical Twilight 5:05 AM CDT 8:43 PM CDT
Moon 1:27 AM CDT (9/18) 4:04 PM CDT (9/18)
Length of Visible Light 13h 19m
Length of Day
12h 22m
Waning Crescent, 26% of the Moon is Illuminated
Sep 18
Waning Crescent
Sep 24
New
Oct 1
First Quarter
Oct 8
Full
Oct 15
Last Quarter

Hourly Weather History & Observations

Time (CDT) Temp. Windchill Dew Point Humidity Pressure Visibility Wind Dir Wind Speed Gust Speed Precip Events Conditions
12:13 AM 42.8 °F - 42.8 °F 100% 30.04 in 0.5 mi Calm Calm - N/A Fog Fog
12:18 AM 42.8 °F - 42.8 °F 100% 30.04 in 0.8 mi Calm Calm - N/A   Clear
12:23 AM 42.8 °F - 42.8 °F 100% 30.04 in 1.0 mi Calm Calm - N/A   Clear
12:28 AM 42.8 °F - 42.8 °F 100% 30.04 in 0.8 mi Calm Calm - N/A   Clear
12:38 AM 41.0 °F - 41.0 °F 100% 30.04 in 0.5 mi Calm Calm - N/A Fog Fog
12:58 AM 41.4 °F - 41.4 °F 100% 30.06 in 0.5 mi Calm Calm - N/A Fog Fog
1:13 AM 41.0 °F - 41.0 °F 100% 30.05 in 0.5 mi Calm Calm - N/A Fog Fog
1:18 AM 42.8 °F - 42.8 °F 100% 30.05 in 0.8 mi Calm Calm - N/A   Clear
1:23 AM 41.0 °F - 41.0 °F 100% 30.05 in 0.5 mi Calm Calm - N/A Fog Fog
1:31 AM 41.0 °F 38.0 °F 41.0 °F 100% 30.06 in 0.5 mi NNE 4.6 mph - N/A Fog Fog
1:36 AM 44.6 °F 43.1 °F 44.6 °F 100% 30.06 in 1.2 mi Variable 3.5 mph - N/A   Mist
1:41 AM 46.4 °F - 46.4 °F 100% 30.06 in 10.0 mi Variable 1.2 mph - N/A   Partly Cloudy
1:58 AM 44.8 °F - 44.8 °F 100% 30.07 in 10.0 mi Calm Calm - N/A   Clear
2:13 AM 44.6 °F - 44.6 °F 100% 30.07 in 8.0 mi Variable 1.2 mph - N/A   Clear
2:18 AM 42.8 °F - 42.8 °F 100% 30.07 in 3.0 mi Calm Calm - N/A   Clear
2:23 AM 42.8 °F - 42.8 °F 100% 30.07 in 3.0 mi East 1.2 mph - N/A   Clear
2:28 AM 42.8 °F - 42.8 °F 100% 30.07 in 7.0 mi Calm Calm - N/A   Clear
2:33 AM 41.0 °F - 41.0 °F 100% 30.07 in 2.5 mi SSE 1.2 mph - N/A   Clear
2:43 AM 42.8 °F - 42.8 °F 100% 30.07 in 9.0 mi East 1.2 mph - N/A   Clear
2:53 AM 41.0 °F - 41.0 °F 100% 30.07 in 0.8 mi NE 1.2 mph - N/A   Clear
2:58 AM 40.3 °F - 40.3 °F 100% 30.09 in 0.5 mi Calm Calm - N/A Fog Fog
3:08 AM 41.0 °F - 41.0 °F 100% 30.07 in 0.8 mi Calm Calm - N/A   Clear
3:15 AM 41.0 °F - 41.0 °F 100% 30.08 in 0.5 mi Calm Calm - N/A Fog Fog
3:25 AM 41.0 °F - 41.0 °F 100% 30.08 in 1.2 mi ESE 1.2 mph - N/A   Mostly Cloudy
3:30 AM 42.8 °F - 42.8 °F 100% 30.08 in 3.0 mi East 2.3 mph - N/A   Mostly Cloudy
3:35 AM 44.6 °F 43.1 °F 44.6 °F 100% 30.08 in 10.0 mi East 3.5 mph - N/A   Mostly Cloudy
3:55 AM 48.2 °F - 48.2 °F 100% 30.09 in 9.0 mi East 5.8 mph - N/A   Overcast
3:58 AM 50.0 °F - 50.0 °F 100% 30.10 in 8.0 mi East 5.8 mph - N/A   Overcast
4:28 AM 50.0 °F - 50.0 °F 100% 30.09 in 5.0 mi East 10.4 mph - N/A   Overcast
4:48 AM 50.0 °F - 50.0 °F 100% 30.10 in 2.0 mi East 9.2 mph - N/A   Overcast
4:58 AM 50.4 °F - 50.4 °F 100% 30.11 in 2.0 mi ESE 10.4 mph - N/A   Overcast
5:08 AM 50.0 °F - 50.0 °F 100% 30.11 in 2.5 mi East 6.9 mph - N/A   Overcast
5:13 AM 50.0 °F - 50.0 °F 100% 30.11 in 3.0 mi East 8.1 mph - N/A   Overcast
5:18 AM 50.0 °F - 50.0 °F 100% 30.11 in 2.5 mi East 5.8 mph - N/A   Overcast
5:23 AM 50.0 °F - 50.0 °F 100% 30.11 in 2.0 mi East 6.9 mph - N/A   Overcast
5:28 AM 50.0 °F - 50.0 °F 100% 30.11 in 2.5 mi ESE 8.1 mph - N/A   Overcast
5:33 AM 50.0 °F - 50.0 °F 100% 30.11 in 3.0 mi ESE 9.2 mph - N/A   Overcast
5:43 AM 50.0 °F - 50.0 °F 100% 30.11 in 5.0 mi ESE 5.8 mph - N/A   Overcast
5:58 AM 49.6 °F - 49.6 °F 100% 30.13 in 9.0 mi East 10.4 mph - N/A   Overcast
6:43 AM 50.0 °F - 50.0 °F 100% 30.12 in 5.0 mi ESE 8.1 mph - N/A   Overcast
6:58 AM 49.1 °F - 49.1 °F 100% 30.14 in 4.0 mi East 9.2 mph - N/A   Overcast
7:18 AM 48.2 °F - 48.2 °F 100% 30.13 in 3.0 mi East 11.5 mph - N/A   Overcast
7:38 AM 48.2 °F - 48.2 °F 100% 30.14 in 4.0 mi East 10.4 mph - N/A   Overcast
7:43 AM 48.2 °F - 48.2 °F 100% 30.14 in 4.0 mi East 10.4 mph - N/A   Overcast
7:58 AM 48.2 °F - 48.2 °F 100% 30.17 in 2.0 mi ESE 9.2 mph - N/A   Overcast
8:03 AM 48.2 °F - 48.2 °F 100% 30.15 in 2.0 mi East 9.2 mph - N/A   Overcast
8:58 AM 50.0 °F - 50.0 °F 100% 30.19 in 2.0 mi East 9.2 mph - N/A   Overcast
9:58 AM 50.0 °F - 50.0 °F 100% 30.20 in 5.0 mi ESE 8.1 mph - N/A   Overcast
10:58 AM 51.8 °F - 51.8 °F 100% 30.22 in 6.0 mi ESE 8.1 mph - N/A   Overcast
11:58 AM 51.8 °F - 51.8 °F 100% 30.21 in 7.0 mi SE 8.1 mph - N/A   Overcast
12:58 PM 55.4 °F - 55.4 °F 100% 30.19 in 7.0 mi SE 8.1 mph - N/A   Overcast
1:58 PM 55.4 °F - 55.4 °F 100% 30.18 in 10.0 mi East 8.1 mph - N/A   Overcast
2:50 PM 59.0 °F - 55.4 °F 88% 30.14 in 10.0 mi ESE 8.1 mph - N/A   Mostly Cloudy
2:58 PM 59.0 °F - 55.4 °F 88% 30.16 in 10.0 mi Variable 5.8 mph - N/A   Mostly Cloudy
3:41 PM 60.8 °F - 55.4 °F 82% 30.12 in 10.0 mi Variable 3.5 mph - N/A   Partly Cloudy
3:58 PM 62.6 °F - 55.4 °F 77% 30.14 in 10.0 mi SSE 6.9 mph - N/A   Partly Cloudy
4:58 PM 62.6 °F - 55.4 °F 77% 30.12 in 10.0 mi East 8.1 mph - N/A   Partly Cloudy
5:58 PM 62.2 °F - 55.4 °F 78% 30.12 in 10.0 mi SE 5.8 mph - N/A   Clear
6:58 PM 57.2 °F - 57.2 °F 100% 30.12 in 10.0 mi SE 5.8 mph - N/A   Clear
7:58 PM 53.6 °F - 53.6 °F 100% 30.13 in 10.0 mi SE 4.6 mph - N/A   Clear
8:58 PM 50.0 °F - 50.0 °F 100% 30.15 in 10.0 mi East 3.5 mph - N/A   Clear
9:58 PM 46.4 °F - 46.4 °F 100% 30.15 in 10.0 mi Calm Calm - N/A Fog Shallow Fog
10:58 PM 46.4 °F 44.3 °F 46.4 °F 100% 30.14 in 10.0 mi SE 4.6 mph - N/A   Clear
11:03 PM 44.6 °F 42.2 °F 44.6 °F 100% 30.12 in 6.0 mi ESE 4.6 mph - N/A   Clear
11:08 PM 44.6 °F 43.1 °F 44.6 °F 100% 30.12 in 0.8 mi ESE 3.5 mph - N/A   Clear
11:13 PM 44.6 °F 43.1 °F 44.6 °F 100% 30.12 in 0.5 mi ESE 3.5 mph - N/A Fog Fog
11:38 PM 46.4 °F 43.5 °F 46.4 °F 100% 30.12 in 1.8 mi ESE 5.8 mph - N/A   Clear
11:43 PM 46.4 °F 43.5 °F 46.4 °F 100% 30.12 in 10.0 mi ESE 5.8 mph - N/A   Clear
11:58 PM 45.9 °F 42.9 °F 45.9 °F 100% 30.14 in 10.0 mi ESE 5.8 mph - N/A   Clear